Time;durP1;ratioP1;P1;durP2;ratioP2;P2;SDS_P1;SDS_P2;PMS_P1;PMS_P2;Temp;Humidity;BMP_temperature;BMP_pressure;BME280_temperature;BME280_humidity;BME280_pressure;Samples;Min_cycle;Max_cycle;Signal;HPM_P1;HPM_P2
2023/06/27 00:01:49;;;;;;;;;;;18.60;99.40;;;;;;7330976;19;113123;-59
2023/06/27 00:04:19;;;;;;;;;;;18.60;99.30;;;;;;7336245;19;110720;-59
2023/06/27 00:06:46;;;;;;;;;;;18.60;99.30;;;;;;7330399;19;109459;-59
2023/06/27 00:09:15;;;;;;;;;;;18.70;99.20;;;;;;7336270;19;109452;-59
2023/06/27 00:11:42;;;;;;;;;;;18.60;99.20;;;;;;7331590;19;108728;-59
2023/06/27 00:14:09;;;;;;;;;;;18.60;99.60;;;;;;7334380;19;111518;-59
2023/06/27 00:16:38;;;;;;;;;;;18.70;99.70;;;;;;7342017;19;109424;-59
2023/06/27 00:19:05;;;;;;;;;;;18.60;99.80;;;;;;7336953;19;110596;-59
2023/06/27 00:21:33;;;;;;;;;;;18.60;99.80;;;;;;7333161;19;110261;-59
2023/06/27 00:24:01;;;;;;;;;;;18.70;99.90;;;;;;7332445;19;109180;-59
2023/06/27 00:26:28;;;;;;;;;;;18.70;99.90;;;;;;7339151;19;109512;-59
2023/06/27 00:28:55;;;;;;;;;;;18.70;99.90;;;;;;7331952;19;110155;-58
2023/06/27 00:31:23;;;;;;;;;;;18.60;99.90;;;;;;7338174;19;108781;-59
2023/06/27 00:33:50;;;;;;;;;;;18.60;99.90;;;;;;7336342;19;109391;-59
2023/06/27 00:36:17;;;;;;;;;;;18.60;99.90;;;;;;7336145;19;109646;-59
2023/06/27 00:38:45;;;;;;;;;;;18.60;99.90;;;;;;7337207;19;109313;-59
2023/06/27 00:41:12;;;;;;;;;;;18.60;99.90;;;;;;7336592;19;109606;-59
2023/06/27 00:43:40;;;;;;;;;;;18.50;99.90;;;;;;7333460;19;108893;-61
2023/06/27 00:46:08;;;;;;;;;;;18.50;99.90;;;;;;7333353;19;108660;-59
2023/06/27 00:48:36;;;;;;;;;;;18.50;99.90;;;;;;7329670;19;112359;-59
2023/06/27 00:51:03;;;;;;;;;;;18.50;99.90;;;;;;7333254;19;108930;-59
2023/06/27 00:53:30;;;;;;;;;;;18.50;99.90;;;;;;7335994;19;109209;-59
2023/06/27 00:55:58;;;;;;;;;;;18.50;99.90;;;;;;7328596;19;109435;-59
2023/06/27 00:58:25;;;;;;;;;;;18.50;99.90;;;;;;7343728;19;108461;-59
2023/06/27 01:00:53;;;;;;;;;;;18.40;99.90;;;;;;7330866;19;109297;-59
2023/06/27 01:03:20;;;;;;;;;;;18.40;99.90;;;;;;7334904;19;108551;-62
2023/06/27 01:05:48;;;;;;;;;;;18.40;99.90;;;;;;7335208;19;109063;-59
2023/06/27 01:08:31;;;;;;;;;;;18.40;99.90;;;;;;7336827;19;109406;-59
2023/06/27 01:11:02;;;;;;;;;;;18.40;99.90;;;;;;7334992;19;109102;-59
2023/06/27 01:13:33;;;;;;;;;;;18.40;99.90;;;;;;7335072;19;109805;-59
2023/06/27 01:16:00;;;;;;;;;;;18.40;99.90;;;;;;7331763;19;109080;-59
2023/06/27 01:18:27;;;;;;;;;;;18.40;99.90;;;;;;7331553;19;110455;-59
2023/06/27 01:20:55;;;;;;;;;;;18.40;99.90;;;;;;7339522;19;109313;-59
2023/06/27 01:23:24;;;;;;;;;;;18.40;99.90;;;;;;7332045;19;108488;-59
2023/06/27 01:26:01;;;;;;;;;;;18.40;99.90;;;;;;7331971;19;109566;-59
2023/06/27 01:28:28;;;;;;;;;;;18.40;99.90;;;;;;7330416;19;109507;-59
2023/06/27 01:30:56;;;;;;;;;;;18.30;99.90;;;;;;7329762;19;109744;-61
2023/06/27 01:33:34;;;;;;;;;;;18.40;99.90;;;;;;7331192;19;111055;-59
2023/06/27 01:36:04;;;;;;;;;;;18.30;99.90;;;;;;7327617;19;110716;-60
2023/06/27 01:38:34;;;;;;;;;;;18.40;99.90;;;;;;7333306;19;109107;-59
2023/06/27 01:41:02;;;;;;;;;;;18.30;99.90;;;;;;7331287;19;109237;-60
2023/06/27 01:43:30;;;;;;;;;;;18.30;99.90;;;;;;7337517;19;112821;-60
2023/06/27 01:46:09;;;;;;;;;;;18.30;99.90;;;;;;7362905;19;111724;-60
2023/06/27 01:48:38;;;;;;;;;;;18.30;99.90;;;;;;7370020;19;108416;-61
2023/06/27 01:51:08;;;;;;;;;;;18.30;99.90;;;;;;7366235;19;109167;-60
2023/06/27 01:53:36;;;;;;;;;;;18.30;99.90;;;;;;7371583;19;109697;-60
2023/06/27 01:56:07;;;;;;;;;;;18.30;99.90;;;;;;7368209;19;110419;-60
2023/06/27 01:58:35;;;;;;;;;;;18.30;99.90;;;;;;7369966;19;109089;-60
2023/06/27 02:01:03;;;;;;;;;;;18.30;99.90;;;;;;7364397;19;109689;-60
2023/06/27 02:03:30;;;;;;;;;;;18.30;99.90;;;;;;7370460;19;108748;-60
2023/06/27 02:05:57;;;;;;;;;;;18.30;99.90;;;;;;7370304;19;109681;-60
2023/06/27 02:08:24;;;;;;;;;;;18.30;99.90;;;;;;7364166;19;110079;-60
2023/06/27 02:10:51;;;;;;;;;;;18.30;99.90;;;;;;7368613;19;108615;-61
2023/06/27 02:13:18;;;;;;;;;;;18.30;99.90;;;;;;7364801;19;110023;-61
2023/06/27 02:15:46;;;;;;;;;;;18.20;99.90;;;;;;7363696;19;109028;-61
2023/06/27 02:18:13;;;;;;;;;;;18.30;99.90;;;;;;7367251;19;109258;-61
2023/06/27 02:20:40;;;;;;;;;;;18.20;99.90;;;;;;7369441;19;109117;-63
2023/06/27 02:23:07;;;;;;;;;;;18.30;99.90;;;;;;7366708;19;108418;-65
2023/06/27 02:25:34;;;;;;;;;;;18.20;99.90;;;;;;7368671;19;108646;-70
2023/06/27 02:28:03;;;;;;;;;;;18.20;99.90;;;;;;7368246;19;109589;-67
2023/06/27 02:30:30;;;;;;;;;;;18.20;99.90;;;;;;7366994;19;109072;-66
2023/06/27 02:32:57;;;;;;;;;;;18.20;99.90;;;;;;7366014;19;109856;-68
2023/06/27 02:35:25;;;;;;;;;;;18.20;99.90;;;;;;7367246;19;108979;-61
2023/06/27 02:37:52;;;;;;;;;;;18.20;99.90;;;;;;7367452;19;108935;-60
2023/06/27 02:40:19;;;;;;;;;;;18.20;99.90;;;;;;7357498;19;109144;-60
2023/06/27 02:42:46;;;;;;;;;;;18.10;99.90;;;;;;7362327;19;109186;-60
2023/06/27 02:45:14;;;;;;;;;;;18.10;99.90;;;;;;7363955;19;109163;-60
2023/06/27 02:47:41;;;;;;;;;;;18.10;99.90;;;;;;7364977;19;110573;-60
2023/06/27 02:50:08;;;;;;;;;;;18.10;99.90;;;;;;7373994;19;108693;-60
2023/06/27 02:52:35;;;;;;;;;;;18.10;99.90;;;;;;7363899;19;109146;-60
2023/06/27 02:55:02;;;;;;;;;;;18.10;99.90;;;;;;7365134;19;108920;-60
2023/06/27 02:57:30;;;;;;;;;;;18.00;99.90;;;;;;7342267;19;108987;-60
2023/06/27 02:59:57;;;;;;;;;;;18.00;99.90;;;;;;7337487;19;110102;-60
2023/06/27 03:02:24;;;;;;;;;;;18.00;99.90;;;;;;7335845;19;109396;-61
2023/06/27 03:04:51;;;;;;;;;;;18.10;99.90;;;;;;7333758;19;110018;-60
2023/06/27 03:07:19;;;;;;;;;;;18.00;99.90;;;;;;7335908;19;109427;-60
2023/06/27 03:09:47;;;;;;;;;;;18.00;99.90;;;;;;7334852;19;108892;-60
2023/06/27 03:12:14;;;;;;;;;;;18.00;99.90;;;;;;7343705;19;110370;-60
2023/06/27 03:14:41;;;;;;;;;;;18.00;99.90;;;;;;7334543;19;109459;-60
2023/06/27 03:17:08;;;;;;;;;;;18.00;99.90;;;;;;7339454;19;109157;-60
2023/06/27 03:19:35;;;;;;;;;;;17.90;99.90;;;;;;7338636;19;110130;-60
2023/06/27 03:22:10;;;;;;;;;;;17.90;99.90;;;;;;7334703;19;110755;-60
2023/06/27 03:24:38;;;;;;;;;;;17.90;99.90;;;;;;7329654;19;109108;-60
2023/06/27 03:27:05;;;;;;;;;;;17.80;99.90;;;;;;7334579;19;111434;-61
2023/06/27 03:29:33;;;;;;;;;;;17.80;99.90;;;;;;7335434;19;108929;-60
2023/06/27 03:32:01;;;;;;;;;;;17.80;99.90;;;;;;7336264;19;110759;-60
2023/06/27 03:34:31;;;;;;;;;;;17.80;99.90;;;;;;7338846;19;110761;-60
2023/06/27 03:36:58;;;;;;;;;;;17.80;99.90;;;;;;7334969;19;109404;-60
2023/06/27 03:39:25;;;;;;;;;;;17.80;99.90;;;;;;7333318;19;109506;-60
2023/06/27 03:41:52;;;;;;;;;;;17.80;99.90;;;;;;7337617;19;110243;-61
2023/06/27 03:44:19;;;;;;;;;;;17.80;99.90;;;;;;7333856;19;108736;-60
2023/06/27 03:46:47;;;;;;;;;;;17.70;99.90;;;;;;7334923;19;109826;-60
2023/06/27 03:49:14;;;;;;;;;;;17.70;99.90;;;;;;7337298;19;109199;-61
2023/06/27 03:51:41;;;;;;;;;;;17.70;99.90;;;;;;7335354;19;109550;-61
2023/06/27 03:54:09;;;;;;;;;;;17.70;99.90;;;;;;7336013;19;109802;-61
2023/06/27 03:56:36;;;;;;;;;;;17.60;99.90;;;;;;7343430;19;108540;-61
2023/06/27 03:59:04;;;;;;;;;;;17.60;99.90;;;;;;7336133;19;109408;-60
2023/06/27 04:01:31;;;;;;;;;;;17.60;99.90;;;;;;7333304;19;111184;-61
2023/06/27 04:03:58;;;;;;;;;;;17.60;99.90;;;;;;7335386;19;108878;-60
2023/06/27 04:06:25;;;;;;;;;;;17.50;99.90;;;;;;7334765;19;110369;-61
2023/06/27 04:08:52;;;;;;;;;;;17.50;99.90;;;;;;7332738;19;108409;-60
2023/06/27 04:11:19;;;;;;;;;;;17.50;99.90;;;;;;7336236;19;112196;-60
2023/06/27 04:13:46;;;;;;;;;;;17.50;99.90;;;;;;7331969;19;111058;-60
2023/06/27 04:16:14;;;;;;;;;;;17.50;99.90;;;;;;7339297;19;109159;-60
2023/06/27 04:18:41;;;;;;;;;;;17.50;99.90;;;;;;7331535;19;110697;-60
2023/06/27 04:21:08;;;;;;;;;;;17.50;99.90;;;;;;7333775;19;109279;-60
2023/06/27 04:23:36;;;;;;;;;;;17.50;99.90;;;;;;7335201;19;109482;-60
2023/06/27 04:26:04;;;;;;;;;;;17.50;99.90;;;;;;7332984;19;109628;-60
2023/06/27 04:28:32;;;;;;;;;;;17.50;99.90;;;;;;7336158;19;108540;-61
2023/06/27 04:31:00;;;;;;;;;;;17.50;99.90;;;;;;7333902;19;109214;-60
2023/06/27 04:33:27;;;;;;;;;;;17.50;99.90;;;;;;7335457;19;109324;-61
2023/06/27 04:36:00;;;;;;;;;;;17.50;99.90;;;;;;7333549;19;108810;-61
2023/06/27 04:38:37;;;;;;;;;;;17.60;99.90;;;;;;7338891;19;108957;-61
2023/06/27 04:41:04;;;;;;;;;;;17.50;99.90;;;;;;7335963;19;109369;-61
2023/06/27 04:43:32;;;;;;;;;;;17.50;99.90;;;;;;7335116;19;109079;-61
2023/06/27 04:45:59;;;;;;;;;;;17.60;99.90;;;;;;7333958;19;109057;-60
2023/06/27 04:48:27;;;;;;;;;;;17.60;99.90;;;;;;7334976;19;109257;-61
2023/06/27 04:50:54;;;;;;;;;;;17.60;99.90;;;;;;7335967;19;110305;-61
2023/06/27 04:53:21;;;;;;;;;;;17.70;99.90;;;;;;7334717;19;109169;-63
2023/06/27 04:55:49;;;;;;;;;;;17.70;99.90;;;;;;7335658;19;110404;-62
2023/06/27 04:58:16;;;;;;;;;;;17.80;99.90;;;;;;7334471;19;109883;-61
2023/06/27 05:00:44;;;;;;;;;;;17.80;99.90;;;;;;7338664;19;110121;-61
2023/06/27 05:03:11;;;;;;;;;;;17.80;99.90;;;;;;7334430;19;108372;-60
2023/06/27 05:05:38;;;;;;;;;;;18.00;99.90;;;;;;7332686;19;109931;-61
2023/06/27 05:08:06;;;;;;;;;;;18.00;99.90;;;;;;7333223;19;108592;-60
2023/06/27 05:10:34;;;;;;;;;;;18.00;99.90;;;;;;7332953;19;109169;-61
2023/06/27 05:13:01;;;;;;;;;;;18.10;99.90;;;;;;7333362;19;109278;-60
2023/06/27 05:15:28;;;;;;;;;;;18.10;99.90;;;;;;7334691;19;110523;-61
2023/06/27 05:18:15;;;;;;;;;;;18.10;99.90;;;;;;7333750;19;108688;-61
2023/06/27 05:20:43;;;;;;;;;;;18.20;99.90;;;;;;7332319;19;110066;-60
2023/06/27 05:23:10;;;;;;;;;;;18.20;99.90;;;;;;7340358;19;108926;-60
2023/06/27 05:25:37;;;;;;;;;;;18.20;99.90;;;;;;7337320;19;110323;-61
2023/06/27 05:28:05;;;;;;;;;;;18.30;99.90;;;;;;7332402;19;109635;-60
2023/06/27 05:30:32;;;;;;;;;;;18.30;99.90;;;;;;7334978;19;109128;-61
2023/06/27 05:33:03;;;;;;;;;;;18.30;99.90;;;;;;7329857;19;109383;-60
2023/06/27 05:35:30;;;;;;;;;;;18.40;99.90;;;;;;7333639;19;109121;-61
2023/06/27 05:37:58;;;;;;;;;;;18.40;99.90;;;;;;7331026;19;109962;-57
2023/06/27 05:40:25;;;;;;;;;;;18.50;99.90;;;;;;7330375;19;109656;-61
2023/06/27 05:42:52;;;;;;;;;;;18.50;99.90;;;;;;7333628;19;109924;-61
2023/06/27 05:45:20;;;;;;;;;;;18.60;99.90;;;;;;7340154;19;109256;-60
2023/06/27 05:47:47;;;;;;;;;;;18.70;99.90;;;;;;7330999;19;110014;-60
2023/06/27 05:50:14;;;;;;;;;;;18.70;99.90;;;;;;7334514;19;110666;-62
2023/06/27 05:52:42;;;;;;;;;;;18.80;99.90;;;;;;7331302;19;109390;-61
2023/06/27 05:55:09;;;;;;;;;;;18.90;99.90;;;;;;7335630;19;108366;-62
2023/06/27 05:57:36;;;;;;;;;;;19.00;99.90;;;;;;7337060;19;109102;-60
2023/06/27 06:00:04;;;;;;;;;;;19.00;99.90;;;;;;7332051;19;109541;-61
2023/06/27 06:02:31;;;;;;;;;;;19.10;99.90;;;;;;7334896;19;109027;-60
2023/06/27 06:05:00;;;;;;;;;;;19.10;99.90;;;;;;7338140;19;108889;-60
2023/06/27 06:07:28;;;;;;;;;;;19.20;99.90;;;;;;7333161;19;109898;-61
2023/06/27 06:09:55;;;;;;;;;;;19.20;99.90;;;;;;7332013;19;108501;-60
2023/06/27 06:12:23;;;;;;;;;;;19.30;99.90;;;;;;7332789;19;109197;-61
2023/06/27 06:14:50;;;;;;;;;;;19.30;99.90;;;;;;7330132;19;108897;-61
2023/06/27 06:17:17;;;;;;;;;;;19.40;99.90;;;;;;7334181;19;109108;-60
2023/06/27 06:19:44;;;;;;;;;;;19.40;99.90;;;;;;7331432;19;110449;-61
2023/06/27 06:22:11;;;;;;;;;;;19.50;99.90;;;;;;7333136;19;108957;-58
2023/06/27 06:24:38;;;;;;;;;;;19.50;99.90;;;;;;7333517;19;108682;-61
2023/06/27 06:27:05;;;;;;;;;;;19.50;99.90;;;;;;7338367;19;109174;-59
2023/06/27 06:29:32;;;;;;;;;;;19.60;99.90;;;;;;7332201;19;109740;-59
2023/06/27 06:32:00;;;;;;;;;;;19.60;99.90;;;;;;7336616;19;109239;-59
2023/06/27 06:34:27;;;;;;;;;;;19.70;99.90;;;;;;7340089;19;109332;-59
2023/06/27 06:36:54;;;;;;;;;;;19.80;99.90;;;;;;7337112;19;108906;-59
2023/06/27 06:39:21;;;;;;;;;;;19.90;99.90;;;;;;7338434;19;110621;-58
2023/06/27 06:41:48;;;;;;;;;;;20.00;99.90;;;;;;7338925;19;109097;-59
2023/06/27 06:44:15;;;;;;;;;;;20.10;99.90;;;;;;7336014;19;108555;-59
2023/06/27 06:46:43;;;;;;;;;;;20.20;99.90;;;;;;7336151;19;109444;-59
2023/06/27 06:49:10;;;;;;;;;;;20.20;99.90;;;;;;7345998;19;108659;-59
2023/06/27 06:51:38;;;;;;;;;;;20.30;99.90;;;;;;7339021;19;109236;-59
2023/06/27 06:54:05;;;;;;;;;;;20.40;99.90;;;;;;7338772;19;108867;-61
2023/06/27 06:56:32;;;;;;;;;;;20.40;99.90;;;;;;7340555;19;109067;-59
2023/06/27 06:59:02;;;;;;;;;;;20.50;99.90;;;;;;7338531;19;111224;-59
2023/06/27 07:01:29;;;;;;;;;;;20.60;99.90;;;;;;7338402;19;108680;-59
2023/06/27 07:03:57;;;;;;;;;;;20.60;99.90;;;;;;7337621;19;111209;-59
2023/06/27 07:06:24;;;;;;;;;;;20.60;99.90;;;;;;7339430;19;109248;-59
2023/06/27 07:08:52;;;;;;;;;;;20.70;99.90;;;;;;7336296;19;110187;-59
2023/06/27 07:11:19;;;;;;;;;;;20.80;99.90;;;;;;7346753;19;109145;-59
2023/06/27 07:13:46;;;;;;;;;;;20.90;99.90;;;;;;7336700;19;108802;-59
2023/06/27 07:16:13;;;;;;;;;;;20.90;99.90;;;;;;7337547;19;108974;-59
2023/06/27 07:18:44;;;;;;;;;;;21.00;99.90;;;;;;7337135;19;109655;-59
2023/06/27 07:21:11;;;;;;;;;;;21.10;99.90;;;;;;7339923;19;108861;-60
2023/06/27 07:23:38;;;;;;;;;;;21.10;99.90;;;;;;7334909;19;108563;-59
2023/06/27 07:26:06;;;;;;;;;;;21.20;99.90;;;;;;7336966;19;110435;-60
2023/06/27 07:28:33;;;;;;;;;;;21.30;99.90;;;;;;7338960;19;108801;-59
2023/06/27 07:31:00;;;;;;;;;;;21.40;99.90;;;;;;7334146;19;109347;-61
2023/06/27 07:33:28;;;;;;;;;;;21.40;99.90;;;;;;7343152;19;110735;-59
2023/06/27 07:35:55;;;;;;;;;;;21.50;99.90;;;;;;7336977;19;110890;-59
2023/06/27 07:38:23;;;;;;;;;;;21.60;99.90;;;;;;7337489;19;109166;-59
2023/06/27 07:40:51;;;;;;;;;;;21.70;99.90;;;;;;7332724;19;109332;-59
2023/06/27 07:43:22;;;;;;;;;;;21.80;99.90;;;;;;7338640;19;108872;-60
2023/06/27 07:45:49;;;;;;;;;;;21.80;99.90;;;;;;7334599;19;110155;-59
2023/06/27 07:48:17;;;;;;;;;;;21.90;99.90;;;;;;7337385;19;108635;-59
2023/06/27 07:50:44;;;;;;;;;;;22.00;99.90;;;;;;7337081;19;109479;-59
2023/06/27 07:53:11;;;;;;;;;;;22.10;99.90;;;;;;7336617;19;110074;-59
2023/06/27 07:55:38;;;;;;;;;;;22.20;99.90;;;;;;7343862;19;108561;-59
2023/06/27 07:58:05;;;;;;;;;;;22.30;99.90;;;;;;7334836;19;109867;-59
2023/06/27 08:00:33;;;;;;;;;;;22.40;99.90;;;;;;7335403;19;109074;-59
2023/06/27 08:03:00;;;;;;;;;;;22.50;99.90;;;;;;7335026;19;108899;-59
2023/06/27 08:05:31;;;;;;;;;;;22.60;99.90;;;;;;7336763;19;109696;-59
2023/06/27 08:07:59;;;;;;;;;;;22.70;99.90;;;;;;7336123;19;108752;-59
2023/06/27 08:10:27;;;;;;;;;;;22.70;99.90;;;;;;7335638;19;110521;-59
2023/06/27 08:12:55;;;;;;;;;;;22.70;99.90;;;;;;7335381;19;108744;-60
2023/06/27 08:15:22;;;;;;;;;;;22.70;99.90;;;;;;7341369;19;109019;-59
2023/06/27 08:17:49;;;;;;;;;;;22.80;99.90;;;;;;7331206;19;113602;-59
2023/06/27 08:20:17;;;;;;;;;;;22.80;99.90;;;;;;7330979;19;108943;-59
2023/06/27 08:22:45;;;;;;;;;;;22.90;99.90;;;;;;7331905;19;108535;-59
2023/06/27 08:25:12;;;;;;;;;;;22.90;99.90;;;;;;7330409;19;109416;-59
2023/06/27 08:27:40;;;;;;;;;;;23.00;99.90;;;;;;7332876;19;111924;-60
2023/06/27 08:30:08;;;;;;;;;;;23.10;99.90;;;;;;7333648;19;109833;-59
2023/06/27 08:32:35;;;;;;;;;;;23.10;99.90;;;;;;7334278;19;109071;-59
2023/06/27 08:35:05;;;;;;;;;;;23.20;99.90;;;;;;7331448;19;108663;-57
2023/06/27 08:37:33;;;;;;;;;;;23.20;99.90;;;;;;7340095;19;108646;-60
2023/06/27 08:40:00;;;;;;;;;;;23.30;99.90;;;;;;7332783;19;108518;-61
2023/06/27 08:42:31;;;;;;;;;;;23.20;99.90;;;;;;7335591;19;109008;-60
2023/06/27 08:48:00;;;;;;;;;;;23.40;99.90;;;;;;7323459;19;107043;-89
2023/06/27 08:50:28;;;;;;;;;;;23.50;99.90;;;;;;7329701;19;109599;-90
2023/06/27 08:52:56;;;;;;;;;;;23.50;99.90;;;;;;7331655;19;110922;-89
2023/06/27 08:55:39;;;;;;;;;;;23.60;99.90;;;;;;7333648;19;108991;-88
2023/06/27 08:58:08;;;;;;;;;;;23.60;99.90;;;;;;7332126;19;109141;-88
2023/06/27 09:00:35;;;;;;;;;;;23.70;99.90;;;;;;7338983;19;110554;-88
2023/06/27 09:03:04;;;;;;;;;;;23.70;99.90;;;;;;7334858;19;108924;-89
2023/06/27 09:05:32;;;;;;;;;;;23.80;99.90;;;;;;7336112;19;110524;-89
2023/06/27 09:07:59;;;;;;;;;;;23.90;99.90;;;;;;7339364;19;108766;-90
2023/06/27 09:10:27;;;;;;;;;;;23.90;99.50;;;;;;7341046;19;110913;-93
2023/06/27 09:12:54;;;;;;;;;;;24.00;99.50;;;;;;7345845;19;109182;-96
2023/06/27 09:15:22;;;;;;;;;;;24.10;99.50;;;;;;7348554;19;108489;-96
2023/06/27 09:17:49;;;;;;;;;;;24.20;99.50;;;;;;7347598;19;110567;-94
2023/06/27 09:20:17;;;;;;;;;;;24.30;98.40;;;;;;7339599;19;111442;-94
2023/06/27 09:22:47;;;;;;;;;;;24.30;97.80;;;;;;7364899;19;110807;-96
2023/06/27 09:25:19;;;;;;;;;;;24.30;98.10;;;;;;7352985;19;110583;-96
2023/06/27 09:27:49;;;;;;;;;;;24.50;97.90;;;;;;7350904;19;108243;-94
2023/06/27 09:30:20;;;;;;;;;;;24.50;97.10;;;;;;7355499;19;110617;-96
2023/06/27 09:33:05;;;;;;;;;;;24.50;97.10;;;;;;7349848;19;108283;-95
2023/06/27 09:35:43;;;;;;;;;;;24.50;96.70;;;;;;7363278;19;107951;-96
2023/06/27 09:38:33;;;;;;;;;;;24.50;95.90;;;;;;7362298;19;107447;-96
2023/06/27 09:41:06;;;;;;;;;;;24.40;96.00;;;;;;7344095;19;108259;-95
2023/06/27 09:43:35;;;;;;;;;;;24.30;96.00;;;;;;7340937;19;108837;-95
2023/06/27 09:46:06;;;;;;;;;;;24.30;95.80;;;;;;7349676;19;109188;-94
2023/06/27 09:48:34;;;;;;;;;;;24.20;94.70;;;;;;7349380;19;108595;-95
2023/06/27 09:51:07;;;;;;;;;;;24.20;95.10;;;;;;7351496;19;111686;-96
2023/06/27 09:53:34;;;;;;;;;;;24.20;95.30;;;;;;7346145;19;109050;-95
2023/06/27 09:56:01;;;;;;;;;;;24.30;95.30;;;;;;7347642;19;108513;-94
2023/06/27 09:58:29;;;;;;;;;;;24.30;94.30;;;;;;7343560;19;111707;-93
2023/06/27 10:01:06;;;;;;;;;;;24.50;95.10;;;;;;7343865;19;110026;-93
2023/06/27 10:03:35;;;;;;;;;;;24.70;94.30;;;;;;7349758;19;107921;-95
2023/06/27 10:06:03;;;;;;;;;;;24.80;92.70;;;;;;7359515;19;108939;-96
2023/06/27 10:08:38;;;;;;;;;;;24.80;91.90;;;;;;7345430;19;111584;-61
2023/06/27 10:11:06;;;;;;;;;;;24.80;93.10;;;;;;7340239;19;109269;-64
2023/06/27 10:13:36;;;;;;;;;;;24.80;91.60;;;;;;7340873;19;110309;-61
2023/06/27 10:16:03;;;;;;;;;;;24.60;91.80;;;;;;7338612;19;109221;-61
2023/06/27 10:18:30;;;;;;;;;;;24.70;92.30;;;;;;7334825;19;109509;-63
2023/06/27 10:20:57;;;;;;;;;;;24.80;93.20;;;;;;7325471;19;110306;-61
2023/06/27 10:23:25;;;;;;;;;;;24.90;92.20;;;;;;7339634;19;113671;-60
2023/06/27 10:25:52;;;;;;;;;;;25.00;92.10;;;;;;7336092;19;108338;-60
2023/06/27 10:28:19;;;;;;;;;;;25.10;91.30;;;;;;7342659;19;110453;-61
2023/06/27 10:30:47;;;;;;;;;;;25.10;90.20;;;;;;7326513;19;109980;-60
2023/06/27 10:33:22;;;;;;;;;;;25.10;91.50;;;;;;7327129;19;110707;-61
2023/06/27 10:35:50;;;;;;;;;;;25.10;91.30;;;;;;7334732;19;108778;-60
2023/06/27 10:38:18;;;;;;;;;;;25.20;91.10;;;;;;7336528;19;109875;-61
2023/06/27 10:41:06;;;;;;;;;;;25.30;92.00;;;;;;7334891;19;111440;-60
2023/06/27 10:43:34;;;;;;;;;;;25.40;91.40;;;;;;7330838;19;110128;-60
2023/06/27 10:46:21;;;;;;;;;;;25.50;91.10;;;;;;7331803;19;108974;-61
2023/06/27 10:48:54;;;;;;;;;;;25.60;91.30;;;;;;7334649;19;109704;-60
2023/06/27 10:51:22;;;;;;;;;;;25.60;89.40;;;;;;7339641;19;109567;-61
2023/06/27 10:54:15;;;;;;;;;;;25.60;90.80;;;;;;7335451;19;109895;-61
2023/06/27 10:56:43;;;;;;;;;;;25.70;91.40;;;;;;7333968;19;110049;-61
2023/06/27 10:59:11;;;;;;;;;;;25.80;90.60;;;;;;7337035;19;109916;-60
2023/06/27 11:01:43;;;;;;;;;;;25.90;90.80;;;;;;7335422;19;110989;-60
2023/06/27 11:04:16;;;;;;;;;;;25.90;90.70;;;;;;7328314;19;109368;-60
2023/06/27 11:06:47;;;;;;;;;;;26.00;90.00;;;;;;7336062;19;109794;-61
2023/06/27 11:09:16;;;;;;;;;;;26.10;90.20;;;;;;7335294;19;110119;-60
2023/06/27 11:11:53;;;;;;;;;;;26.10;88.90;;;;;;7335682;19;108874;-61
2023/06/27 11:14:38;;;;;;;;;;;26.10;89.80;;;;;;7341024;19;109313;-61
2023/06/27 11:17:05;;;;;;;;;;;26.10;86.10;;;;;;7336354;19;108661;-60
2023/06/27 11:19:33;;;;;;;;;;;25.90;84.70;;;;;;7335027;19;109780;-61
2023/06/27 11:22:00;;;;;;;;;;;25.80;87.50;;;;;;7335018;19;109617;-61
2023/06/27 11:24:29;;;;;;;;;;;25.60;85.00;;;;;;7336603;19;109010;-60
2023/06/27 11:26:57;;;;;;;;;;;25.60;87.70;;;;;;7335974;19;108944;-61
2023/06/27 11:29:24;;;;;;;;;;;25.40;86.90;;;;;;7333510;19;109494;-61
2023/06/27 11:31:53;;;;;;;;;;;25.40;86.00;;;;;;7329053;19;108937;-61
2023/06/27 11:34:20;;;;;;;;;;;25.30;85.20;;;;;;7331709;19;109660;-61
2023/06/27 11:36:47;;;;;;;;;;;25.20;86.50;;;;;;7339593;19;109749;-61
2023/06/27 11:39:15;;;;;;;;;;;25.30;87.50;;;;;;7335542;19;108852;-61
2023/06/27 11:41:43;;;;;;;;;;;25.50;88.30;;;;;;7333488;19;109048;-61
2023/06/27 11:44:11;;;;;;;;;;;25.60;88.50;;;;;;7330930;19;110160;-60
2023/06/27 11:46:51;;;;;;;;;;;25.50;85.00;;;;;;7332784;19;110342;-60
2023/06/27 11:49:22;;;;;;;;;;;25.40;86.00;;;;;;7332961;19;109197;-60
2023/06/27 11:51:49;;;;;;;;;;;25.40;87.10;;;;;;7335767;19;108605;-61
2023/06/27 11:54:17;;;;;;;;;;;25.40;87.70;;;;;;7335180;19;109286;-61
2023/06/27 11:56:45;;;;;;;;;;;25.40;88.10;;;;;;7334910;19;109521;-61
2023/06/27 11:59:13;;;;;;;;;;;25.20;86.60;;;;;;7340282;19;109052;-60
2023/06/27 12:01:41;;;;;;;;;;;25.20;88.50;;;;;;7333877;19;110156;-61
2023/06/27 12:04:16;;;;;;;;;;;25.30;89.40;;;;;;7335462;19;109271;-61
2023/06/27 12:06:44;;;;;;;;;;;25.40;90.00;;;;;;7333101;19;109633;-60
2023/06/27 12:09:29;;;;;;;;;;;25.50;90.00;;;;;;7333305;19;109350;-61
2023/06/27 12:11:58;;;;;;;;;;;25.60;89.80;;;;;;7333311;19;108553;-61
2023/06/27 12:14:26;;;;;;;;;;;25.70;89.60;;;;;;7333373;19;109210;-61
2023/06/27 12:16:54;;;;;;;;;;;25.80;89.00;;;;;;7334448;19;110413;-61
2023/06/27 12:19:21;;;;;;;;;;;25.80;89.30;;;;;;7334837;19;108781;-61
2023/06/27 12:21:49;;;;;;;;;;;25.80;89.20;;;;;;7340578;19;109468;-61
2023/06/27 12:24:16;;;;;;;;;;;25.80;88.10;;;;;;7332473;19;108801;-61
2023/06/27 12:26:45;;;;;;;;;;;25.80;89.10;;;;;;7332188;19;109692;-61
2023/06/27 12:29:12;;;;;;;;;;;25.70;88.40;;;;;;7331105;19;109311;-61
2023/06/27 12:31:40;;;;;;;;;;;25.60;87.90;;;;;;7335795;19;109123;-60
2023/06/27 12:34:07;;;;;;;;;;;25.60;87.40;;;;;;7333522;19;109254;-60
2023/06/27 12:36:36;;;;;;;;;;;25.50;87.70;;;;;;7332460;19;110172;-61
2023/06/27 12:39:03;;;;;;;;;;;25.40;88.30;;;;;;7333413;19;109436;-61
2023/06/27 12:41:31;;;;;;;;;;;25.40;85.70;;;;;;7338161;19;108527;-60
2023/06/27 12:43:58;;;;;;;;;;;25.20;88.10;;;;;;7333984;19;109659;-61
2023/06/27 12:46:25;;;;;;;;;;;25.10;87.00;;;;;;7331936;19;109844;-60
2023/06/27 12:48:52;;;;;;;;;;;25.00;87.60;;;;;;7330450;19;110202;-60
2023/06/27 12:51:21;;;;;;;;;;;24.90;88.00;;;;;;7333223;19;109910;-60
2023/06/27 12:53:48;;;;;;;;;;;24.90;89.50;;;;;;7333313;19;108656;-60
2023/06/27 12:56:16;;;;;;;;;;;25.10;89.70;;;;;;7332607;19;110215;-60
2023/06/27 12:58:46;;;;;;;;;;;25.10;88.10;;;;;;7333166;19;108614;-61
2023/06/27 13:01:13;;;;;;;;;;;25.00;86.50;;;;;;7333277;19;110136;-61
2023/06/27 13:03:41;;;;;;;;;;;25.00;87.60;;;;;;7339907;19;109063;-60
2023/06/27 13:06:08;;;;;;;;;;;25.10;87.70;;;;;;7331612;19;108919;-60
2023/06/27 13:08:35;;;;;;;;;;;25.20;88.10;;;;;;7331380;19;110086;-61
2023/06/27 13:11:02;;;;;;;;;;;25.30;88.60;;;;;;7330725;19;110246;-61
2023/06/27 13:13:31;;;;;;;;;;;25.40;88.20;;;;;;7332278;19;108704;-60
2023/06/27 13:16:01;;;;;;;;;;;25.40;87.30;;;;;;7333257;19;109711;-61
2023/06/27 13:18:41;;;;;;;;;;;25.50;85.90;;;;;;7325608;19;108882;-61
2023/06/27 13:21:09;;;;;;;;;;;25.40;86.60;;;;;;7333849;19;109021;-61
2023/06/27 13:23:36;;;;;;;;;;;25.40;86.90;;;;;;7334358;19;109833;-61
2023/06/27 13:26:03;;;;;;;;;;;25.50;88.30;;;;;;7338613;19;108446;-60
2023/06/27 13:28:30;;;;;;;;;;;25.60;88.70;;;;;;7330508;19;109418;-61
2023/06/27 13:30:58;;;;;;;;;;;25.80;88.60;;;;;;7333814;19;109735;-60
2023/06/27 13:33:25;;;;;;;;;;;25.90;88.60;;;;;;7330395;19;108375;-61
2023/06/27 13:35:52;;;;;;;;;;;26.10;88.70;;;;;;7329477;19;109642;-61
2023/06/27 13:38:19;;;;;;;;;;;26.20;89.00;;;;;;7332963;19;108754;-61
2023/06/27 13:40:46;;;;;;;;;;;26.30;88.50;;;;;;7328513;19;110133;-61
2023/06/27 13:43:13;;;;;;;;;;;26.30;85.60;;;;;;7331187;19;110058;-62
2023/06/27 13:45:40;;;;;;;;;;;26.30;87.80;;;;;;7327374;19;109834;-61
2023/06/27 13:48:08;;;;;;;;;;;26.20;87.90;;;;;;7337641;19;109137;-61
2023/06/27 13:50:36;;;;;;;;;;;26.40;89.00;;;;;;7332344;19;108890;-61
2023/06/27 13:53:05;;;;;;;;;;;26.60;88.70;;;;;;7331722;19;110186;-60
2023/06/27 13:55:32;;;;;;;;;;;26.80;86.90;;;;;;7331993;19;109734;-60
2023/06/27 13:57:59;;;;;;;;;;;26.70;85.20;;;;;;7333707;19;109792;-60
2023/06/27 14:00:27;;;;;;;;;;;26.70;86.80;;;;;;7329647;19;111230;-61
2023/06/27 14:02:54;;;;;;;;;;;26.70;86.50;;;;;;7332100;19;109632;-60
2023/06/27 14:05:23;;;;;;;;;;;26.50;84.30;;;;;;7328982;19;109333;-60
2023/06/27 14:07:50;;;;;;;;;;;26.40;86.50;;;;;;7332114;19;108606;-60
2023/06/27 14:10:17;;;;;;;;;;;26.20;85.40;;;;;;7335709;19;109146;-60
2023/06/27 14:12:44;;;;;;;;;;;26.20;85.90;;;;;;7333289;19;108455;-60
2023/06/27 14:15:12;;;;;;;;;;;26.00;85.80;;;;;;7330811;19;109404;-60